ITY97K LIPZ-LIRF
Flight info
| Callsign | ITY97K |
|---|---|
| Flight time | 0h 42m |
| Altitude | 31000 |
| Route | CHI DCT DIPVO DCT NIKMA DCT RITEB |
| Aircraft | A320/M-SDE3FGHIRWY/LB1 |
Departure
| Time | 2026-05-06 15:40 |
|---|---|
| Airport | Venice Marco Polo Airport (LIPZ) |
Arrival
| Time | 2026-05-06 16:23 |
|---|---|
| Airport | Rome–Fiumicino Leonardo da Vinci International Airport (LIRF) |
| Time | Latitude | Longitude | Altitude | Speed | Heading |
|---|---|---|---|---|---|
| 2026-05-06 15:12 | 45.50757 | 12.34409 | 16 ft | 0 kts | 224° |
| 2026-05-06 15:26 | 45.50758 | 12.34411 | 16 ft | 2 kts | 224° |
| 2026-05-06 15:27 | 45.50777 | 12.34435 | 16 ft | 3 kts | 222° |
| 2026-05-06 15:27 | 45.50793 | 12.34454 | 17 ft | 4 kts | 200° |
| 2026-05-06 15:27 | 45.50815 | 12.34455 | 16 ft | 4 kts | 140° |
| 2026-05-06 15:27 | 45.50823 | 12.34445 | 16 ft | 0 kts | 132° |
| 2026-05-06 15:30 | 45.50820 | 12.34450 | 18 ft | 4 kts | 132° |
| 2026-05-06 15:30 | 45.50777 | 12.34519 | 16 ft | 13 kts | 131° |
| 2026-05-06 15:30 | 45.50708 | 12.34630 | 16 ft | 16 kts | 134° |
| 2026-05-06 15:30 | 45.50617 | 12.34739 | 17 ft | 17 kts | 160° |
| 2026-05-06 15:31 | 45.50544 | 12.34676 | 17 ft | 12 kts | 216° |
| 2026-05-06 15:31 | 45.50474 | 12.34588 | 16 ft | 15 kts | 224° |
| 2026-05-06 15:31 | 45.50396 | 12.34481 | 16 ft | 17 kts | 223° |
| 2026-05-06 15:32 | 45.50248 | 12.34356 | 17 ft | 6 kts | 167° |
| 2026-05-06 15:32 | 45.50166 | 12.34365 | 16 ft | 17 kts | 186° |
| 2026-05-06 15:32 | 45.50059 | 12.34263 | 15 ft | 20 kts | 222° |
| 2026-05-06 15:32 | 45.49947 | 12.34113 | 14 ft | 24 kts | 221° |
| 2026-05-06 15:33 | 45.49814 | 12.33944 | 14 ft | 27 kts | 222° |
| 2026-05-06 15:33 | 45.49666 | 12.33756 | 19 ft | 30 kts | 221° |
| 2026-05-06 15:33 | 45.49532 | 12.33598 | 18 ft | 14 kts | 198° |
| 2026-05-06 15:33 | 45.49507 | 12.33612 | 17 ft | 0 kts | 139° |
| 2026-05-06 15:38 | 45.49480 | 12.33650 | 16 ft | 20 kts | 134° |
| 2026-05-06 15:39 | 45.49426 | 12.33796 | 17 ft | 9 kts | 27° |
| 2026-05-06 15:39 | 45.49450 | 12.33817 | 15 ft | 0 kts | 39° |
| 2026-05-06 15:39 | 45.49462 | 12.33832 | 16 ft | 21 kts | 40° |
| 2026-05-06 15:40 | 45.49841 | 12.34329 | 13 ft | 120 kts | 41° |
| 2026-05-06 15:40 | 45.50635 | 12.35324 | 274 ft | 166 kts | 43° |
| 2026-05-06 15:40 | 45.51531 | 12.36452 | 1099 ft | 176 kts | 45° |
| 2026-05-06 15:40 | 45.52444 | 12.37676 | 1864 ft | 190 kts | 47° |
| 2026-05-06 15:41 | 45.53436 | 12.39054 | 2514 ft | 208 kts | 52° |
| 2026-05-06 15:41 | 45.53922 | 12.41002 | 3240 ft | 212 kts | 96° |
| 2026-05-06 15:41 | 45.53566 | 12.43024 | 4076 ft | 219 kts | 114° |
| 2026-05-06 15:41 | 45.52652 | 12.44853 | 4746 ft | 239 kts | 146° |
| 2026-05-06 15:42 | 45.51073 | 12.45768 | 5443 ft | 256 kts | 173° |
| 2026-05-06 15:42 | 45.49286 | 12.46201 | 6554 ft | 263 kts | 174° |
| 2026-05-06 15:42 | 45.47463 | 12.46624 | 7737 ft | 267 kts | 174° |
| 2026-05-06 15:42 | 45.45614 | 12.47053 | 8921 ft | 271 kts | 175° |
| 2026-05-06 15:43 | 45.43745 | 12.47493 | 10097 ft | 275 kts | 175° |
| 2026-05-06 15:43 | 45.41766 | 12.47955 | 10675 ft | 300 kts | 175° |
| 2026-05-06 15:43 | 45.39644 | 12.48452 | 11384 ft | 316 kts | 174° |
| 2026-05-06 15:43 | 45.37456 | 12.48974 | 12302 ft | 322 kts | 174° |
| 2026-05-06 15:44 | 45.35229 | 12.49310 | 13226 ft | 323 kts | 183° |
| 2026-05-06 15:44 | 45.32996 | 12.48974 | 14190 ft | 323 kts | 195° |
| 2026-05-06 15:44 | 45.30871 | 12.47926 | 15079 ft | 325 kts | 207° |
| 2026-05-06 15:44 | 45.28886 | 12.46315 | 15853 ft | 333 kts | 212° |
| 2026-05-06 15:45 | 45.26881 | 12.44618 | 16659 ft | 338 kts | 212° |
| 2026-05-06 15:45 | 45.24842 | 12.42897 | 17502 ft | 343 kts | 212° |
| 2026-05-06 15:45 | 45.22776 | 12.41163 | 18377 ft | 346 kts | 212° |
| 2026-05-06 15:45 | 45.20690 | 12.39422 | 19161 ft | 349 kts | 212° |
| 2026-05-06 15:46 | 45.19297 | 12.38263 | 19671 ft | 352 kts | 212° |
| 2026-05-06 15:46 | 45.17177 | 12.36500 | 20440 ft | 355 kts | 212° |
| 2026-05-06 15:46 | 45.15036 | 12.34722 | 21216 ft | 358 kts | 212° |
| 2026-05-06 15:46 | 45.12869 | 12.32928 | 21980 ft | 362 kts | 212° |
| 2026-05-06 15:47 | 45.10687 | 12.31122 | 22706 ft | 366 kts | 212° |
| 2026-05-06 15:47 | 45.08423 | 12.29432 | 23391 ft | 372 kts | 205° |
| 2026-05-06 15:47 | 45.05927 | 12.28334 | 23972 ft | 380 kts | 195° |
| 2026-05-06 15:47 | 45.03273 | 12.27938 | 24563 ft | 387 kts | 186° |
| 2026-05-06 15:48 | 45.00577 | 12.27809 | 25153 ft | 389 kts | 187° |
| 2026-05-06 15:48 | 44.97866 | 12.27673 | 25712 ft | 391 kts | 187° |
| 2026-05-06 15:48 | 44.95141 | 12.27531 | 26275 ft | 393 kts | 187° |
| 2026-05-06 15:48 | 44.92425 | 12.27388 | 26822 ft | 394 kts | 187° |
| 2026-05-06 15:49 | 44.90574 | 12.27290 | 27188 ft | 396 kts | 187° |
| 2026-05-06 15:49 | 44.88422 | 12.27175 | 27581 ft | 397 kts | 187° |
| 2026-05-06 15:49 | 44.85648 | 12.27026 | 28101 ft | 399 kts | 187° |
| 2026-05-06 15:49 | 44.83327 | 12.26902 | 28526 ft | 401 kts | 187° |
| 2026-05-06 15:50 | 44.80528 | 12.26754 | 29010 ft | 403 kts | 187° |
| 2026-05-06 15:50 | 44.77713 | 12.26611 | 29477 ft | 405 kts | 187° |
| 2026-05-06 15:50 | 44.74884 | 12.26472 | 29931 ft | 407 kts | 187° |
| 2026-05-06 15:50 | 44.72042 | 12.26330 | 30289 ft | 409 kts | 188° |
| 2026-05-06 15:51 | 44.69197 | 12.26185 | 30690 ft | 409 kts | 188° |
| 2026-05-06 15:51 | 44.66354 | 12.26037 | 30852 ft | 408 kts | 188° |
| 2026-05-06 15:51 | 44.60801 | 12.25761 | 30887 ft | 394 kts | 188° |
| 2026-05-06 15:52 | 44.55370 | 12.25485 | 30887 ft | 392 kts | 188° |
| 2026-05-06 15:52 | 44.49884 | 12.25191 | 30887 ft | 391 kts | 188° |
| 2026-05-06 15:53 | 44.44490 | 12.24917 | 30887 ft | 390 kts | 188° |
| 2026-05-06 15:53 | 44.39052 | 12.24642 | 30887 ft | 390 kts | 188° |
| 2026-05-06 15:54 | 44.33628 | 12.24369 | 30875 ft | 390 kts | 188° |
| 2026-05-06 15:54 | 44.28195 | 12.24094 | 30866 ft | 390 kts | 188° |
| 2026-05-06 15:55 | 44.22773 | 12.23810 | 30870 ft | 390 kts | 188° |
| 2026-05-06 15:55 | 44.17348 | 12.23535 | 30872 ft | 390 kts | 188° |
| 2026-05-06 15:56 | 44.11921 | 12.23263 | 30875 ft | 390 kts | 188° |
| 2026-05-06 15:56 | 44.06498 | 12.22993 | 30870 ft | 390 kts | 188° |
| 2026-05-06 15:57 | 44.01068 | 12.22721 | 30876 ft | 391 kts | 188° |
| 2026-05-06 15:57 | 43.95639 | 12.22445 | 30847 ft | 391 kts | 187° |
| 2026-05-06 15:58 | 43.90146 | 12.22168 | 30884 ft | 397 kts | 187° |
| 2026-05-06 15:58 | 43.84622 | 12.21896 | 30896 ft | 397 kts | 187° |
| 2026-05-06 15:59 | 43.79142 | 12.21627 | 30898 ft | 397 kts | 187° |
| 2026-05-06 15:59 | 43.73624 | 12.21356 | 30886 ft | 397 kts | 188° |
| 2026-05-06 16:00 | 43.68087 | 12.21072 | 30897 ft | 398 kts | 187° |
| 2026-05-06 16:00 | 43.62546 | 12.20790 | 30902 ft | 398 kts | 188° |
| 2026-05-06 16:01 | 43.56998 | 12.20515 | 30896 ft | 399 kts | 188° |
| 2026-05-06 16:01 | 43.51450 | 12.20249 | 30906 ft | 398 kts | 188° |
| 2026-05-06 16:02 | 43.45914 | 12.19979 | 30906 ft | 397 kts | 188° |
| 2026-05-06 16:02 | 43.40388 | 12.19695 | 30920 ft | 398 kts | 188° |
| 2026-05-06 16:03 | 43.34865 | 12.19418 | 30923 ft | 397 kts | 188° |
| 2026-05-06 16:03 | 43.29376 | 12.19153 | 30933 ft | 397 kts | 188° |
| 2026-05-06 16:04 | 43.23810 | 12.18880 | 30942 ft | 397 kts | 189° |
| 2026-05-06 16:04 | 43.18167 | 12.18586 | 30945 ft | 411 kts | 188° |
| 2026-05-06 16:05 | 43.12470 | 12.18301 | 30953 ft | 413 kts | 188° |
| 2026-05-06 16:05 | 43.06732 | 12.18018 | 30434 ft | 412 kts | 188° |
| 2026-05-06 16:06 | 43.03858 | 12.17883 | 28639 ft | 414 kts | 187° |
| 2026-05-06 16:06 | 43.00978 | 12.17755 | 26717 ft | 416 kts | 187° |
| 2026-05-06 16:06 | 42.98050 | 12.17626 | 25491 ft | 420 kts | 187° |
| 2026-05-06 16:06 | 42.95143 | 12.17501 | 24555 ft | 415 kts | 187° |
| 2026-05-06 16:07 | 42.92265 | 12.17378 | 23659 ft | 412 kts | 187° |
| 2026-05-06 16:07 | 42.89409 | 12.17255 | 22674 ft | 409 kts | 187° |
| 2026-05-06 16:07 | 42.86578 | 12.17129 | 21796 ft | 404 kts | 186° |
| 2026-05-06 16:07 | 42.83787 | 12.17002 | 20969 ft | 399 kts | 186° |
| 2026-05-06 16:08 | 42.81029 | 12.16881 | 20301 ft | 392 kts | 186° |
| 2026-05-06 16:08 | 42.78368 | 12.16763 | 20163 ft | 373 kts | 186° |
| 2026-05-06 16:08 | 42.75834 | 12.16653 | 20031 ft | 355 kts | 186° |
| 2026-05-06 16:08 | 42.73419 | 12.16547 | 19913 ft | 339 kts | 186° |
| 2026-05-06 16:09 | 42.71094 | 12.16441 | 19476 ft | 333 kts | 186° |
| 2026-05-06 16:09 | 42.68728 | 12.16354 | 18444 ft | 347 kts | 183° |
| 2026-05-06 16:09 | 42.66300 | 12.16397 | 17391 ft | 358 kts | 181° |
| 2026-05-06 16:09 | 42.63772 | 12.16535 | 16592 ft | 358 kts | 180° |
| 2026-05-06 16:10 | 42.61289 | 12.16711 | 15917 ft | 357 kts | 180° |
| 2026-05-06 16:10 | 42.58848 | 12.16891 | 15274 ft | 354 kts | 180° |
| 2026-05-06 16:10 | 42.56392 | 12.17059 | 14630 ft | 352 kts | 180° |
| 2026-05-06 16:10 | 42.53952 | 12.17210 | 14023 ft | 348 kts | 180° |
| 2026-05-06 16:11 | 42.51534 | 12.17342 | 13394 ft | 344 kts | 181° |
| 2026-05-06 16:11 | 42.49155 | 12.17464 | 12714 ft | 341 kts | 180° |
| 2026-05-06 16:11 | 42.46813 | 12.17582 | 12041 ft | 338 kts | 181° |
| 2026-05-06 16:11 | 42.44473 | 12.17700 | 11352 ft | 335 kts | 181° |
| 2026-05-06 16:12 | 42.42147 | 12.17818 | 10691 ft | 331 kts | 180° |
| 2026-05-06 16:12 | 42.39842 | 12.17935 | 9983 ft | 329 kts | 181° |
| 2026-05-06 16:12 | 42.37597 | 12.18048 | 9313 ft | 324 kts | 181° |
| 2026-05-06 16:12 | 42.35337 | 12.18164 | 8537 ft | 323 kts | 180° |
| 2026-05-06 16:13 | 42.33089 | 12.18285 | 7777 ft | 321 kts | 179° |
| 2026-05-06 16:13 | 42.30887 | 12.18405 | 7126 ft | 317 kts | 180° |
| 2026-05-06 16:13 | 42.28690 | 12.18520 | 6474 ft | 313 kts | 180° |
| 2026-05-06 16:13 | 42.26512 | 12.18632 | 6080 ft | 311 kts | 179° |
| 2026-05-06 16:14 | 42.24340 | 12.18743 | 5914 ft | 308 kts | 179° |
| 2026-05-06 16:14 | 42.22261 | 12.18853 | 5408 ft | 297 kts | 179° |
| 2026-05-06 16:14 | 42.20200 | 12.18959 | 4770 ft | 294 kts | 179° |
| 2026-05-06 16:14 | 42.18189 | 12.19059 | 4174 ft | 291 kts | 178° |
| 2026-05-06 16:15 | 42.16167 | 12.19161 | 3993 ft | 278 kts | 178° |
| 2026-05-06 16:15 | 42.14365 | 12.19246 | 3986 ft | 240 kts | 180° |
| 2026-05-06 16:15 | 42.12804 | 12.19252 | 3985 ft | 209 kts | 181° |
| 2026-05-06 16:15 | 42.11435 | 12.19226 | 3856 ft | 189 kts | 182° |
| 2026-05-06 16:16 | 42.10169 | 12.19194 | 3739 ft | 174 kts | 182° |
| 2026-05-06 16:16 | 42.08996 | 12.19167 | 3578 ft | 163 kts | 181° |
| 2026-05-06 16:16 | 42.07872 | 12.19142 | 3295 ft | 160 kts | 182° |
| 2026-05-06 16:16 | 42.06735 | 12.19120 | 2961 ft | 166 kts | 182° |
| 2026-05-06 16:17 | 42.05499 | 12.19098 | 3004 ft | 186 kts | 180° |
| 2026-05-06 16:17 | 42.04189 | 12.19077 | 2999 ft | 189 kts | 181° |
| 2026-05-06 16:17 | 42.02867 | 12.19056 | 2999 ft | 189 kts | 181° |
| 2026-05-06 16:17 | 42.01574 | 12.19130 | 2998 ft | 187 kts | 171° |
| 2026-05-06 16:18 | 42.00336 | 12.19560 | 3021 ft | 174 kts | 166° |
| 2026-05-06 16:18 | 41.99238 | 12.20009 | 2951 ft | 157 kts | 166° |
| 2026-05-06 16:18 | 41.98230 | 12.20428 | 2799 ft | 149 kts | 165° |
| 2026-05-06 16:18 | 41.97275 | 12.20828 | 2617 ft | 138 kts | 165° |
| 2026-05-06 16:19 | 41.96393 | 12.21198 | 2457 ft | 128 kts | 165° |
| 2026-05-06 16:19 | 41.95563 | 12.21546 | 2292 ft | 121 kts | 166° |
| 2026-05-06 16:19 | 41.94774 | 12.21878 | 2144 ft | 117 kts | 166° |
| 2026-05-06 16:19 | 41.94015 | 12.22201 | 1980 ft | 115 kts | 166° |
| 2026-05-06 16:20 | 41.93239 | 12.22552 | 1844 ft | 120 kts | 164° |
| 2026-05-06 16:20 | 41.92449 | 12.22912 | 1750 ft | 119 kts | 167° |
| 2026-05-06 16:20 | 41.91636 | 12.23191 | 1647 ft | 130 kts | 168° |
| 2026-05-06 16:20 | 41.90713 | 12.23560 | 1585 ft | 145 kts | 164° |
| 2026-05-06 16:21 | 41.89777 | 12.23974 | 1211 ft | 139 kts | 165° |
| 2026-05-06 16:21 | 41.88840 | 12.24339 | 897 ft | 138 kts | 163° |
| 2026-05-06 16:21 | 41.87948 | 12.24740 | 724 ft | 137 kts | 161° |
| 2026-05-06 16:21 | 41.87036 | 12.25143 | 589 ft | 138 kts | 164° |
| 2026-05-06 16:22 | 41.86126 | 12.25521 | 409 ft | 135 kts | 164° |
| 2026-05-06 16:22 | 41.85232 | 12.25889 | 216 ft | 130 kts | 164° |
| 2026-05-06 16:22 | 41.84428 | 12.26219 | 70 ft | 115 kts | 163° |
| 2026-05-06 16:22 | 41.83707 | 12.26529 | 19 ft | 95 kts | 162° |
| 2026-05-06 16:23 | 41.83250 | 12.26723 | 11 ft | 49 kts | 163° |
| 2026-05-06 16:23 | 41.82931 | 12.26854 | 13 ft | 49 kts | 165° |
| 2026-05-06 16:23 | 41.82639 | 12.26854 | 11 ft | 38 kts | 192° |
| 2026-05-06 16:23 | 41.82419 | 12.26788 | 11 ft | 32 kts | 191° |
| 2026-05-06 16:24 | 41.82220 | 12.26831 | 11 ft | 29 kts | 165° |
| 2026-05-06 16:24 | 41.82028 | 12.26902 | 11 ft | 28 kts | 163° |
| 2026-05-06 16:24 | 41.81839 | 12.26982 | 12 ft | 29 kts | 161° |
| 2026-05-06 16:24 | 41.81643 | 12.27069 | 12 ft | 30 kts | 162° |
| 2026-05-06 16:25 | 41.81439 | 12.27158 | 12 ft | 31 kts | 162° |
| 2026-05-06 16:25 | 41.81302 | 12.27215 | 13 ft | 31 kts | 163° |
| 2026-05-06 16:25 | 41.81095 | 12.27299 | 13 ft | 31 kts | 163° |
| 2026-05-06 16:25 | 41.80842 | 12.27350 | 13 ft | 25 kts | 189° |
| 2026-05-06 16:26 | 41.80731 | 12.27313 | 13 ft | 17 kts | 201° |
| 2026-05-06 16:26 | 41.80652 | 12.27244 | 13 ft | 14 kts | 231° |
| 2026-05-06 16:26 | 41.80616 | 12.27108 | 15 ft | 17 kts | 253° |
| 2026-05-06 16:26 | 41.80577 | 12.26948 | 13 ft | 20 kts | 250° |
| 2026-05-06 16:27 | 41.80523 | 12.26753 | 15 ft | 24 kts | 249° |
| 2026-05-06 16:27 | 41.80475 | 12.26566 | 15 ft | 19 kts | 250° |
| 2026-05-06 16:27 | 41.80444 | 12.26454 | 18 ft | 11 kts | 250° |
| 2026-05-06 16:27 | 41.80398 | 12.26371 | 15 ft | 12 kts | 214° |
| 2026-05-06 16:28 | 41.80312 | 12.26389 | 14 ft | 15 kts | 162° |
| 2026-05-06 16:28 | 41.80201 | 12.26403 | 14 ft | 18 kts | 202° |
| 2026-05-06 16:28 | 41.80074 | 12.26319 | 14 ft | 22 kts | 206° |
| 2026-05-06 16:28 | 41.79934 | 12.26233 | 14 ft | 22 kts | 204° |
| 2026-05-06 16:29 | 41.79818 | 12.26164 | 14 ft | 12 kts | 204° |
| 2026-05-06 16:29 | 41.79799 | 12.26153 | 15 ft | 0 kts | 204° |
| 2026-05-06 16:29 | 41.79795 | 12.26150 | 14 ft | 4 kts | 209° |
| 2026-05-06 16:29 | 41.79767 | 12.26065 | 14 ft | 10 kts | 282° |
| 2026-05-06 16:30 | 41.79804 | 12.25951 | 16 ft | 18 kts | 293° |
| 2026-05-06 16:30 | 41.79836 | 12.25847 | 14 ft | 16 kts | 290° |
| 2026-05-06 16:30 | 41.79749 | 12.25739 | 14 ft | 11 kts | 210° |
| 2026-05-06 16:30 | 41.79750 | 12.25699 | 14 ft | 2 kts | 296° |
| 2026-05-06 16:31 | 41.79761 | 12.25672 | 16 ft | 3 kts | 296° |
| 2026-05-06 16:31 | 41.79764 | 12.25662 | 15 ft | 0 kts | 295° |